createdAt,value
2018-10-19T00:01:01.458Z,2.33
2018-10-19T00:03:29.560Z,2.42
2018-10-19T00:05:58.256Z,2.02
2018-10-19T00:08:26.390Z,2.27
2018-10-19T00:10:54.483Z,1.90
2018-10-19T00:13:22.612Z,2.15
2018-10-19T00:15:50.675Z,2.33
2018-10-19T00:18:18.756Z,1.82
2018-10-19T00:20:47.146Z,1.98
2018-10-19T00:23:15.233Z,2.00
2018-10-19T00:25:43.322Z,2.00
2018-10-19T00:28:11.471Z,2.00
2018-10-19T00:30:39.552Z,2.17
2018-10-19T00:33:07.629Z,2.08
2018-10-19T00:35:36.400Z,2.10
2018-10-19T00:38:04.944Z,2.30
2018-10-19T00:40:33.479Z,1.92
2018-10-19T00:43:01.562Z,1.90
2018-10-19T00:45:35.023Z,1.87
2018-10-19T00:48:07.900Z,2.20
2018-10-19T00:50:35.993Z,2.02
2018-10-19T00:53:04.129Z,2.10
2018-10-19T00:55:32.212Z,1.70
2018-10-19T00:58:00.558Z,2.00
2018-10-19T01:00:29.103Z,1.70
2018-10-19T01:02:57.372Z,2.00
2018-10-19T01:05:25.501Z,1.95
2018-10-19T01:07:53.584Z,2.22
2018-10-19T01:10:24.227Z,1.90
2018-10-19T01:12:54.418Z,2.02
2018-10-19T01:15:22.502Z,2.15
2018-10-19T01:17:50.847Z,1.90
2018-10-19T01:20:25.681Z,2.02
2018-10-19T01:22:53.928Z,1.95
2018-10-19T01:25:21.976Z,2.10
2018-10-19T01:27:50.360Z,1.75
2018-10-19T01:30:18.478Z,2.27
2018-10-19T01:32:46.660Z,2.12
2018-10-19T01:35:14.835Z,2.35
2018-10-19T01:37:42.908Z,2.35
2018-10-19T01:40:12.083Z,2.37
2018-10-19T01:42:40.436Z,2.58
2018-10-19T01:45:10.193Z,1.92
2018-10-19T01:47:38.843Z,2.05
2018-10-19T01:50:07.629Z,2.10
2018-10-19T01:52:35.709Z,2.40
2018-10-19T01:55:03.829Z,2.08
2018-10-19T01:57:32.188Z,2.15
2018-10-19T02:00:00.246Z,1.98
2018-10-19T02:02:28.441Z,2.72
2018-10-19T02:04:56.607Z,2.15
2018-10-19T02:07:24.736Z,1.98
2018-10-19T02:09:52.836Z,1.98
2018-10-19T02:12:20.939Z,2.72
2018-10-19T02:14:49.139Z,2.17
2018-10-19T02:17:17.223Z,2.10
2018-10-19T02:19:45.357Z,2.25
2018-10-19T02:22:13.441Z,2.08
2018-10-19T02:24:41.609Z,2.62
2018-10-19T02:27:09.759Z,2.58
2018-10-19T02:29:37.999Z,2.60
2018-10-19T02:32:06.145Z,2.67
2018-10-19T02:34:34.299Z,2.93
2018-10-19T02:37:02.468Z,2.30
2018-10-19T02:39:30.607Z,2.67
2018-10-19T02:41:59.299Z,2.27
2018-10-19T02:44:27.473Z,2.27
2018-10-19T02:46:55.683Z,2.60
2018-10-19T02:49:23.787Z,2.33
2018-10-19T02:51:51.859Z,2.70
2018-10-19T02:54:19.961Z,2.62
2018-10-19T02:56:48.046Z,3.02
2018-10-19T02:59:16.191Z,3.05
2018-10-19T03:01:44.248Z,3.00
2018-10-19T03:04:12.367Z,3.20
2018-10-19T03:06:40.581Z,3.40
2018-10-19T03:09:09.639Z,3.30
2018-10-19T03:11:37.757Z,3.20
2018-10-19T03:14:05.795Z,3.67
2018-10-19T03:16:33.983Z,4.00
2018-10-19T03:19:02.060Z,3.73
2018-10-19T03:21:30.139Z,3.77
2018-10-19T03:23:58.225Z,3.62
2018-10-19T03:26:26.300Z,3.58
2018-10-19T03:28:54.404Z,3.70
2018-10-19T03:31:22.512Z,3.77
2018-10-19T03:33:50.689Z,4.67
2018-10-19T03:36:18.777Z,4.00
2018-10-19T03:38:47.491Z,4.25
2018-10-19T03:41:15.625Z,3.60
2018-10-19T03:43:43.679Z,4.03
2018-10-19T03:46:11.908Z,4.37
2018-10-19T03:48:39.973Z,4.30
2018-10-19T03:51:08.181Z,4.10
2018-10-19T03:53:36.156Z,4.20
2018-10-19T03:56:04.297Z,4.20
2018-10-19T03:58:32.416Z,4.00
2018-10-19T04:01:00.607Z,4.03
2018-10-19T04:03:28.699Z,3.70
2018-10-19T04:05:56.786Z,12.83
2018-10-19T04:08:24.929Z,7.70
2018-10-19T04:10:53.019Z,4.10
2018-10-19T04:13:21.155Z,3.87
2018-10-19T04:15:49.250Z,4.03
2018-10-19T04:18:17.320Z,4.08
2018-10-19T04:20:45.428Z,4.42
2018-10-19T04:23:13.654Z,4.37
2018-10-19T04:25:41.669Z,4.03
2018-10-19T04:28:09.734Z,4.60
2018-10-19T04:30:38.063Z,6.47
2018-10-19T04:33:06.257Z,10.63
2018-10-19T04:35:34.327Z,5.47
2018-10-19T04:38:02.892Z,4.97
2018-10-19T04:40:30.982Z,4.72
2018-10-19T04:42:59.172Z,4.80
2018-10-19T04:45:27.269Z,5.10
2018-10-19T04:47:55.488Z,4.70
2018-10-19T04:50:23.571Z,4.72
2018-10-19T04:52:51.663Z,4.80
2018-10-19T04:55:20.928Z,5.20
2018-10-19T04:57:48.997Z,4.73
2018-10-19T05:00:18.640Z,4.50
2018-10-19T05:02:47.375Z,4.63
2018-10-19T05:05:15.589Z,4.70
2018-10-19T05:07:43.644Z,4.63
2018-10-19T05:10:11.975Z,4.33
2018-10-19T05:12:40.202Z,5.40
2018-10-19T05:15:09.179Z,6.57
2018-10-19T05:17:37.399Z,5.33
2018-10-19T05:20:06.150Z,6.77
2018-10-19T05:22:34.295Z,7.10
2018-10-19T05:25:02.444Z,9.90
2018-10-19T05:27:30.552Z,9.57
2018-10-19T05:29:58.654Z,10.97
2018-10-19T05:32:26.737Z,10.67
2018-10-19T05:34:54.882Z,8.67
2018-10-19T05:37:22.983Z,8.70
2018-10-19T05:39:51.078Z,10.40
2018-10-19T05:42:19.804Z,8.47
2018-10-19T05:44:48.021Z,8.47
2018-10-19T05:47:16.277Z,7.20
2018-10-19T05:49:44.441Z,7.30
2018-10-19T05:52:12.584Z,7.00
2018-10-19T05:54:40.721Z,7.73
2018-10-19T05:57:08.913Z,6.87
2018-10-19T05:59:37.061Z,5.87
2018-10-19T06:02:05.585Z,5.60
2018-10-19T06:04:33.743Z,5.47
2018-10-19T06:07:01.866Z,5.13
2018-10-19T06:09:29.948Z,4.80
2018-10-19T06:11:58.030Z,4.57
2018-10-19T06:14:26.524Z,5.00
2018-10-19T06:16:54.743Z,5.37
2018-10-19T06:19:22.871Z,5.03
2018-10-19T06:21:51.069Z,5.40
2018-10-19T06:24:19.221Z,6.50
2018-10-19T06:26:47.520Z,6.30
2018-10-19T06:29:15.707Z,6.90
2018-10-19T06:31:43.797Z,7.37
2018-10-19T06:34:11.920Z,7.47
2018-10-19T06:36:40.000Z,6.17
2018-10-19T06:39:09.357Z,5.53
2018-10-19T06:41:37.550Z,5.27
2018-10-19T06:44:06.026Z,4.50
2018-10-19T06:46:34.116Z,4.70
2018-10-19T06:49:02.430Z,4.80
2018-10-19T06:51:30.432Z,5.00
2018-10-19T06:53:59.114Z,5.47
2018-10-19T06:56:27.509Z,4.47
2018-10-19T06:58:55.619Z,4.50
2018-10-19T07:01:23.691Z,4.60
2018-10-19T07:03:51.929Z,4.03
2018-10-19T07:06:20.049Z,3.95
2018-10-19T07:08:48.271Z,3.97
2018-10-19T07:11:16.458Z,4.50
2018-10-19T07:13:44.520Z,3.42
2018-10-19T07:16:12.812Z,3.42
2018-10-19T07:18:41.016Z,3.40
2018-10-19T07:21:09.108Z,3.62
2018-10-19T07:23:37.248Z,3.25
2018-10-19T07:26:05.689Z,3.15
2018-10-19T07:28:33.804Z,2.90
2018-10-19T07:31:01.913Z,2.98
2018-10-19T07:33:30.303Z,3.47
2018-10-19T07:35:58.685Z,3.95
2018-10-19T07:38:26.748Z,3.20
2018-10-19T07:40:56.206Z,2.90
2018-10-19T07:43:24.941Z,3.70
2018-10-19T07:45:53.296Z,3.30
2018-10-19T07:48:21.702Z,3.70
2018-10-19T07:50:50.183Z,3.17
2018-10-19T07:53:18.276Z,3.40
2018-10-19T07:55:46.672Z,3.40
2018-10-19T07:58:15.136Z,2.83
2018-10-19T08:00:43.220Z,3.33
2018-10-19T08:03:11.628Z,3.35
2018-10-19T08:05:40.020Z,3.00
2018-10-19T08:08:08.672Z,3.05
2018-10-19T08:10:36.773Z,3.22
2018-10-19T08:13:05.228Z,3.22
2018-10-19T08:15:33.321Z,3.05
2018-10-19T08:18:01.508Z,2.80
2018-10-19T08:20:29.713Z,2.90
2018-10-19T08:22:57.907Z,2.65
2018-10-19T08:25:26.009Z,2.80
2018-10-19T08:27:54.123Z,3.17
2018-10-19T08:30:22.211Z,2.83
2018-10-19T08:32:50.383Z,2.98
2018-10-19T08:35:18.488Z,2.70
2018-10-19T08:37:47.034Z,2.65
2018-10-19T08:40:15.176Z,3.80
2018-10-19T08:42:43.348Z,3.25
2018-10-19T08:45:11.485Z,3.30
2018-10-19T08:47:40.153Z,2.65
2018-10-19T08:50:08.335Z,2.67
2018-10-19T08:52:36.437Z,3.15
2018-10-19T08:55:04.599Z,2.58
2018-10-19T08:57:32.714Z,2.55
2018-10-19T09:00:00.876Z,2.70
2018-10-19T09:02:29.099Z,3.45
2018-10-19T09:04:57.284Z,3.22
2018-10-19T09:07:25.408Z,2.60
2018-10-19T09:09:53.801Z,3.17
2018-10-19T09:12:21.965Z,3.10
2018-10-19T09:15:00.016Z,2.77
2018-10-19T09:17:28.417Z,18.27
2018-10-19T09:19:56.869Z,2.70
2018-10-19T09:22:24.953Z,2.52
2018-10-19T09:24:53.348Z,2.62
2018-10-19T09:27:21.871Z,2.33
2018-10-19T09:29:50.264Z,2.33
2018-10-19T09:32:18.419Z,2.58
2018-10-19T09:34:46.923Z,2.85
2018-10-19T09:37:15.425Z,2.35
2018-10-19T09:39:43.986Z,3.00
2018-10-19T09:42:12.379Z,2.70
2018-10-19T09:44:40.973Z,2.37
2018-10-19T09:47:09.625Z,2.40
2018-10-19T09:49:38.032Z,2.30
2018-10-19T09:52:06.497Z,1.95
2018-10-19T09:54:35.750Z,2.42
2018-10-19T09:57:04.285Z,2.45
2018-10-19T09:59:32.759Z,2.27
2018-10-19T10:02:01.227Z,2.77
2018-10-19T10:04:30.191Z,2.37
2018-10-19T10:06:58.649Z,1.90
2018-10-19T10:09:27.005Z,2.08
2018-10-19T10:11:55.408Z,2.17
2018-10-19T10:14:23.784Z,2.33
2018-10-19T10:16:52.356Z,2.20
2018-10-19T10:19:20.444Z,2.30
2018-10-19T10:21:48.969Z,2.35
2018-10-19T10:24:17.481Z,2.12
2018-10-19T10:26:45.848Z,2.20
2018-10-19T10:29:14.253Z,2.12
2018-10-19T10:31:42.615Z,2.12
2018-10-19T10:34:11.047Z,1.80
2018-10-19T10:36:39.392Z,1.80
2018-10-19T10:39:10.219Z,1.70
2018-10-19T10:41:38.754Z,1.85
2018-10-19T10:44:07.203Z,1.60
2018-10-19T10:46:35.872Z,1.82
2018-10-19T10:49:04.303Z,1.70
2018-10-19T10:51:32.701Z,1.80
2018-10-19T10:54:01.193Z,1.70
2018-10-19T10:56:29.573Z,2.20
2018-10-19T10:58:57.972Z,2.20
2018-10-19T11:01:26.368Z,3.22
2018-10-19T11:03:54.735Z,2.15
2018-10-19T11:06:23.140Z,1.60
2018-10-19T11:08:51.534Z,1.70
2018-10-19T11:11:20.013Z,1.62
2018-10-19T11:13:48.379Z,2.20
2018-10-19T11:16:16.803Z,2.10
2018-10-19T11:18:45.206Z,1.60
2018-10-19T11:21:13.590Z,1.40
2018-10-19T11:23:41.978Z,1.57
2018-10-19T11:26:10.362Z,1.70
2018-10-19T11:28:38.816Z,1.90
2018-10-19T11:31:07.269Z,1.70
2018-10-19T11:33:35.631Z,1.40
2018-10-19T11:36:05.127Z,1.50
2018-10-19T11:38:33.514Z,1.75
2018-10-19T11:41:01.959Z,1.95
2018-10-19T11:43:30.440Z,1.40
2018-10-19T11:45:58.849Z,1.72
2018-10-19T11:48:27.215Z,1.62
2018-10-19T11:50:55.652Z,1.50
2018-10-19T11:53:24.057Z,1.40
2018-10-19T11:55:52.557Z,1.50
2018-10-19T11:58:20.964Z,2.10
2018-10-19T12:00:49.472Z,1.45
2018-10-19T12:03:18.054Z,1.47
2018-10-19T12:05:46.605Z,1.55
2018-10-19T12:08:15.016Z,1.77
2018-10-19T12:10:43.595Z,1.40
2018-10-19T12:13:12.026Z,1.82
2018-10-19T12:15:40.350Z,1.40
2018-10-19T12:18:08.862Z,1.50
2018-10-19T12:20:36.975Z,1.40
2018-10-19T12:23:05.297Z,1.50
2018-10-19T12:25:33.432Z,3.22
2018-10-19T12:28:01.536Z,1.75
2018-10-19T12:30:29.634Z,1.72
2018-10-19T12:32:58.363Z,1.35
2018-10-19T12:35:26.595Z,1.80
2018-10-19T12:37:54.693Z,1.37
2018-10-19T12:40:22.792Z,1.40
2018-10-19T12:42:50.878Z,1.50
2018-10-19T12:46:28.973Z,1.85
2018-10-19T12:48:57.231Z,1.60
2018-10-19T12:51:25.288Z,1.30
2018-10-19T12:53:53.411Z,1.40
2018-10-19T12:56:22.072Z,1.40
2018-10-19T12:58:51.175Z,1.57
2018-10-19T13:01:19.771Z,1.98
2018-10-19T13:03:47.871Z,1.60
2018-10-19T13:06:16.035Z,1.45
2018-10-19T13:08:44.216Z,1.27
2018-10-19T13:11:12.912Z,1.57
2018-10-19T13:13:41.080Z,1.27
2018-10-19T13:16:09.239Z,1.30
2018-10-19T13:18:37.304Z,1.35
2018-10-19T13:21:05.487Z,1.30
2018-10-19T13:23:33.940Z,1.80
2018-10-19T13:26:02.596Z,1.52
2018-10-19T13:28:30.916Z,1.32
2018-10-19T13:30:59.056Z,1.35
2018-10-19T13:33:27.417Z,1.62
2018-10-19T13:35:55.525Z,1.65
2018-10-19T13:38:24.029Z,1.35
2018-10-19T13:40:53.104Z,1.40
2018-10-19T13:43:21.490Z,1.30
2018-10-19T13:45:49.952Z,1.30
2018-10-19T13:48:18.450Z,1.25
2018-10-19T13:50:46.539Z,1.15
2018-10-19T13:53:14.905Z,1.47
2018-10-19T13:55:42.979Z,1.40
2018-10-19T13:58:11.245Z,1.42
2018-10-19T14:00:39.356Z,1.62
2018-10-19T14:03:07.497Z,1.50
2018-10-19T14:05:35.832Z,1.65
2018-10-19T14:08:03.949Z,1.50
2018-10-19T14:10:32.132Z,1.30
2018-10-19T14:13:00.924Z,1.37
2018-10-19T14:15:29.600Z,1.32
2018-10-19T14:17:57.737Z,1.50
2018-10-19T14:20:25.799Z,1.55
2018-10-19T14:22:53.981Z,1.57
2018-10-19T14:25:22.813Z,5.80
2018-10-19T14:27:50.914Z,1.42
2018-10-19T14:30:19.152Z,1.50
2018-10-19T14:32:48.272Z,1.52
2018-10-19T14:35:16.476Z,2.00
2018-10-19T14:37:45.428Z,1.82
2018-10-19T14:40:15.037Z,7.17
2018-10-19T14:42:43.659Z,5.15
2018-10-19T14:45:12.873Z,2.60
2018-10-19T14:47:41.692Z,8.00
2018-10-19T14:50:11.234Z,1.70
2018-10-19T14:52:39.321Z,2.33
2018-10-19T14:55:08.856Z,1.90
2018-10-19T14:57:37.918Z,2.10
2018-10-19T15:00:06.928Z,2.05
2018-10-19T15:02:35.045Z,1.35
2018-10-19T15:05:03.350Z,2.40
2018-10-19T15:07:31.408Z,2.58
2018-10-19T15:09:59.671Z,2.33
2018-10-19T15:12:27.631Z,2.87
2018-10-19T15:14:55.921Z,1.92
2018-10-19T15:17:23.999Z,2.08
2018-10-19T15:19:52.102Z,1.50
2018-10-19T15:22:20.313Z,4.05
2018-10-19T15:24:48.495Z,2.22
2018-10-19T15:27:16.900Z,6.70
2018-10-19T15:29:45.112Z,8.35
2018-10-19T15:32:13.111Z,1.80
2018-10-19T15:34:41.195Z,1.67
2018-10-19T15:37:09.293Z,2.12
2018-10-19T15:39:37.521Z,3.37
2018-10-19T15:42:05.712Z,4.12
2018-10-19T15:44:33.789Z,2.05
2018-10-19T15:47:02.790Z,1.62
2018-10-19T15:49:31.613Z,1.82
2018-10-19T15:51:59.768Z,1.80
2018-10-19T15:54:27.921Z,9.53
2018-10-19T15:56:56.535Z,4.78
2018-10-19T15:59:24.588Z,3.02
2018-10-19T16:01:52.836Z,11.55
2018-10-19T16:04:21.086Z,2.30
2018-10-19T16:06:49.153Z,1.82
2018-10-19T16:09:17.347Z,1.72
2018-10-19T16:11:45.972Z,2.10
2018-10-19T16:14:14.206Z,1.90
2018-10-19T16:16:42.372Z,1.90
2018-10-19T16:19:10.561Z,1.60
2018-10-19T16:21:38.644Z,2.20
2018-10-19T16:24:07.188Z,3.12
2018-10-19T16:26:35.304Z,6.08
2018-10-19T16:29:03.643Z,7.55
2018-10-19T16:31:31.743Z,7.67
2018-10-19T16:33:59.855Z,6.05
2018-10-19T16:36:27.962Z,6.28
2018-10-19T16:38:56.090Z,9.88
2018-10-19T16:41:24.198Z,12.53
2018-10-19T16:43:52.306Z,12.78
2018-10-19T16:46:20.533Z,10.90
2018-10-19T16:48:48.637Z,12.10
2018-10-19T16:51:16.823Z,9.85
2018-10-19T16:53:45.081Z,8.90
2018-10-19T16:56:13.172Z,7.10
2018-10-19T16:58:41.560Z,5.85
2018-10-19T17:01:09.636Z,8.33
2018-10-19T17:03:37.776Z,8.60
2018-10-19T17:06:06.003Z,9.95
2018-10-19T17:08:34.001Z,8.60
2018-10-19T17:11:02.230Z,9.78
2018-10-19T17:13:30.318Z,13.35
2018-10-19T17:15:58.584Z,12.80
2018-10-19T17:18:27.179Z,12.93
2018-10-19T17:20:55.340Z,12.93
2018-10-19T17:23:23.409Z,11.05
2018-10-19T17:25:51.524Z,9.80
2018-10-19T17:28:19.637Z,9.85
2018-10-19T17:30:47.825Z,8.83
2018-10-19T17:33:15.997Z,9.05
2018-10-19T17:35:44.125Z,7.97
2018-10-19T17:38:12.386Z,6.22
2018-10-19T17:40:40.504Z,6.40
2018-10-19T17:43:08.678Z,6.22
2018-10-19T17:45:36.783Z,5.67
2018-10-19T17:48:05.087Z,5.42
2018-10-19T17:50:33.206Z,4.70
2018-10-19T17:53:01.352Z,5.78
2018-10-19T17:55:29.454Z,5.62
2018-10-19T17:57:57.650Z,6.50
2018-10-19T18:00:25.748Z,5.95
2018-10-19T18:02:53.863Z,5.53
2018-10-19T18:05:21.962Z,5.08
2018-10-19T18:07:50.134Z,4.67
2018-10-19T18:10:18.265Z,4.33
2018-10-19T18:12:46.490Z,6.12
2018-10-19T18:15:14.630Z,6.97
2018-10-19T18:17:42.731Z,6.45
2018-10-19T18:20:10.904Z,6.37
2018-10-19T18:22:39.093Z,6.60
2018-10-19T18:25:07.408Z,6.30
2018-10-19T18:27:35.620Z,6.75
2018-10-19T18:30:03.888Z,5.72
2018-10-19T18:32:32.004Z,5.45
2018-10-19T18:35:00.187Z,5.85
2018-10-19T18:37:28.285Z,6.53
2018-10-19T18:39:56.495Z,7.45
2018-10-19T18:42:24.620Z,6.90
2018-10-19T18:44:52.779Z,6.00
2018-10-19T18:47:20.902Z,5.42
2018-10-19T18:49:49.020Z,5.67
2018-10-19T18:52:17.191Z,5.28
2018-10-19T18:54:45.310Z,6.03
2018-10-19T18:57:13.461Z,8.35
2018-10-19T18:59:41.578Z,7.30
2018-10-19T19:02:09.865Z,5.15
2018-10-19T19:04:38.062Z,4.90
2018-10-19T19:07:06.464Z,4.50
2018-10-19T19:09:34.580Z,6.30
2018-10-19T19:12:02.819Z,7.75
2018-10-19T19:14:31.767Z,6.08
2018-10-19T19:17:00.023Z,6.75
2018-10-19T19:19:28.245Z,6.83
2018-10-19T19:21:56.397Z,6.40
2018-10-19T19:25:28.801Z,5.55
2018-10-19T19:27:57.105Z,5.95
2018-10-19T19:30:25.297Z,5.90
2018-10-19T19:32:58.813Z,4.92
2018-10-19T19:35:27.055Z,4.60
2018-10-19T19:37:55.231Z,3.67
2018-10-19T19:40:23.452Z,3.37
2018-10-19T19:42:53.545Z,3.83
2018-10-19T19:45:21.792Z,3.30
2018-10-19T19:47:55.275Z,4.50
2018-10-19T19:50:23.389Z,4.17
2018-10-19T19:52:51.506Z,5.25
2018-10-19T19:55:19.596Z,5.15
2018-10-19T19:57:47.860Z,4.87
2018-10-19T20:00:16.140Z,4.93
2018-10-19T20:02:44.246Z,4.85
2018-10-19T20:05:12.520Z,5.22
2018-10-19T20:07:40.601Z,5.25
2018-10-19T20:10:08.737Z,6.20
2018-10-19T20:12:37.188Z,5.12
2018-10-19T20:15:06.544Z,4.87
2018-10-19T20:17:34.660Z,4.40
2018-10-19T20:20:02.948Z,3.87
2018-10-19T20:22:31.023Z,3.98
2018-10-19T20:24:59.165Z,3.70
2018-10-19T20:27:27.280Z,2.90
2018-10-19T20:29:55.374Z,3.33
2018-10-19T20:32:23.697Z,3.13
2018-10-19T20:34:52.379Z,3.93
2018-10-19T20:37:20.496Z,4.25
2018-10-19T20:39:48.632Z,4.10
2018-10-19T20:42:16.751Z,3.20
2018-10-19T20:44:44.861Z,3.00
2018-10-19T20:47:13.018Z,3.12
2018-10-19T20:49:41.122Z,3.40
2018-10-19T20:52:09.220Z,3.53
2018-10-19T20:54:37.380Z,3.77
2018-10-19T20:57:05.529Z,3.70
2018-10-19T20:59:33.723Z,4.15
2018-10-19T21:02:01.879Z,4.20
2018-10-19T21:04:30.012Z,4.53
2018-10-19T21:06:58.165Z,3.70
2018-10-19T21:09:26.332Z,4.08
2018-10-19T21:11:54.448Z,4.40
2018-10-19T21:14:23.007Z,4.85
2018-10-19T21:16:51.392Z,4.03
2018-10-19T21:19:19.536Z,3.75
2018-10-19T21:21:47.713Z,3.20
2018-10-19T21:24:15.877Z,3.80
2018-10-19T21:26:43.960Z,4.33
2018-10-19T21:29:12.067Z,4.30
2018-10-19T21:31:40.192Z,4.73
2018-10-19T21:34:08.265Z,4.33
2018-10-19T21:36:36.468Z,3.65
2018-10-19T21:39:06.158Z,4.30
2018-10-19T21:41:34.253Z,4.75
2018-10-19T21:44:02.401Z,4.50
2018-10-19T21:46:30.480Z,5.12
2018-10-19T21:48:58.909Z,4.50
2018-10-19T21:51:27.200Z,4.20
2018-10-19T21:53:55.344Z,4.80
2018-10-19T21:56:23.407Z,5.17
2018-10-19T21:58:51.819Z,4.70
2018-10-19T22:01:19.904Z,5.20
2018-10-19T22:03:48.024Z,5.80
2018-10-19T22:06:16.104Z,5.20
2018-10-19T22:08:44.234Z,5.00
2018-10-19T22:11:12.398Z,5.33
2018-10-19T22:13:40.513Z,5.17
2018-10-19T22:16:08.657Z,5.40
2018-10-19T22:18:36.756Z,5.47
2018-10-19T22:21:05.488Z,5.23
2018-10-19T22:23:33.669Z,5.72
2018-10-19T22:26:01.852Z,6.80
2018-10-19T22:28:29.900Z,5.67
2018-10-19T22:30:58.042Z,5.23
2018-10-19T22:33:26.210Z,5.77
2018-10-19T22:35:54.377Z,5.83
2018-10-19T22:38:22.520Z,5.27
2018-10-19T22:40:50.615Z,6.30
2018-10-19T22:43:18.714Z,6.43
2018-10-19T22:45:46.901Z,6.17
2018-10-19T22:48:14.998Z,6.60
2018-10-19T22:50:43.084Z,6.17
2018-10-19T22:53:11.354Z,6.03
2018-10-19T22:55:39.405Z,6.37
2018-10-19T22:58:07.473Z,5.90
2018-10-19T23:00:35.621Z,6.27
2018-10-19T23:03:03.825Z,6.73
2018-10-19T23:05:31.917Z,7.77
2018-10-19T23:08:00.011Z,5.70
2018-10-19T23:10:28.179Z,5.40
2018-10-19T23:12:56.290Z,6.33
2018-10-19T23:15:24.348Z,5.37
2018-10-19T23:17:52.521Z,5.40
2018-10-19T23:20:20.687Z,6.30
2018-10-19T23:22:48.864Z,5.90
2018-10-19T23:25:16.978Z,6.00
2018-10-19T23:27:45.116Z,6.17
2018-10-19T23:30:13.243Z,5.97
2018-10-19T23:32:41.437Z,6.37
2018-10-19T23:35:09.661Z,6.37
2018-10-19T23:37:37.740Z,6.20
2018-10-19T23:40:06.208Z,6.10
2018-10-19T23:42:34.268Z,5.63
2018-10-19T23:45:02.434Z,5.67
2018-10-19T23:47:30.543Z,5.80
2018-10-19T23:49:58.671Z,5.50
2018-10-19T23:52:26.744Z,5.63
2018-10-19T23:54:54.830Z,5.60
2018-10-19T23:57:22.923Z,5.77
2018-10-19T23:59:51.080Z,5.27
